Areado, Brazil
Current Conditions -  °F | °C
As of 10:00 PM on Tuesday 21 Oct 2014 (Local Time) from SBYS Reporting Station
Clear Clear  
Wind Chill: 66°   Ceiling: Unl
Heat Index: 66°   Visibility: 6mi
Dew Point: 55°   Wind: 17mph
Humidity: 68%   Direction: 180°S
Pressure: 30.09"   Gusts: NA
Location:  21.36°S, 46.15°W
Report Text: SBYS 220000Z 18015KT CAVOK 19/13 Q1019
Loading
Personal Weather Stations






























Interactive Weather Map
Tropical Storm Tracking
New forecast layout! Learn more

10-Day Weather Forecast

Advertisements
Track Severe Weather on mobile